createdAt,value
2017-11-10T00:02:10.220Z,24.12
2017-11-10T00:04:37.764Z,20.20
2017-11-10T00:07:05.242Z,23.10
2017-11-10T00:09:32.748Z,20.40
2017-11-10T00:12:00.238Z,17.87
2017-11-10T00:14:27.702Z,22.80
2017-11-10T00:16:55.190Z,20.88
2017-11-10T00:19:23.440Z,18.90
2017-11-10T00:21:50.937Z,12.20
2017-11-10T00:24:19.174Z,15.18
2017-11-10T00:26:46.648Z,12.23
2017-11-10T00:29:14.165Z,11.93
2017-11-10T00:31:41.636Z,12.02
2017-11-10T00:34:09.117Z,10.98
2017-11-10T00:36:36.617Z,10.13
2017-11-10T00:39:04.136Z,10.07
2017-11-10T00:41:31.641Z,12.57
2017-11-10T00:43:59.555Z,9.90
2017-11-10T00:46:27.020Z,8.38
2017-11-10T00:48:54.504Z,8.55
2017-11-10T00:51:22.773Z,8.05
2017-11-10T00:53:51.005Z,10.57
2017-11-10T00:56:18.509Z,13.32
2017-11-10T00:58:46.736Z,11.32
2017-11-10T01:01:14.188Z,7.30
2017-11-10T01:03:41.702Z,8.20
2017-11-10T01:06:09.918Z,8.00
2017-11-10T01:08:37.396Z,7.28
2017-11-10T01:11:04.883Z,7.62
2017-11-10T01:13:33.133Z,7.57
2017-11-10T01:16:00.613Z,7.60
2017-11-10T01:18:28.091Z,8.25
2017-11-10T01:20:56.325Z,18.77
2017-11-10T01:23:23.806Z,21.58
2017-11-10T01:25:51.305Z,30.55
2017-11-10T01:28:18.781Z,28.38
2017-11-10T01:30:46.265Z,23.00
2017-11-10T01:33:13.785Z,24.77
2017-11-10T01:35:41.256Z,20.35
2017-11-10T01:38:08.740Z,25.80
2017-11-10T01:40:36.207Z,24.70
2017-11-10T01:43:03.712Z,33.50
2017-11-10T01:45:31.175Z,25.88
2017-11-10T01:47:59.472Z,25.65
2017-11-10T01:50:26.964Z,25.02
2017-11-10T01:52:54.446Z,24.85
2017-11-10T01:55:22.704Z,19.15
2017-11-10T01:57:50.175Z,22.83
2017-11-10T02:00:18.458Z,24.48
2017-11-10T02:02:46.692Z,23.95
2017-11-10T02:05:14.155Z,26.75
2017-11-10T02:07:41.682Z,25.48
2017-11-10T02:10:09.174Z,26.90
2017-11-10T02:12:36.655Z,27.20
2017-11-10T02:15:04.143Z,25.77
2017-11-10T02:17:31.992Z,30.98
2017-11-10T02:20:00.222Z,33.47
2017-11-10T02:22:27.705Z,30.90
2017-11-10T02:24:55.185Z,30.42
2017-11-10T02:27:23.419Z,33.72
2017-11-10T02:29:50.912Z,35.63
2017-11-10T02:32:19.172Z,31.17
2017-11-10T02:35:01.370Z,35.15
2017-11-10T02:37:28.849Z,33.47
2017-11-10T02:39:57.088Z,27.87
2017-11-10T02:42:25.223Z,35.97
2017-11-10T02:44:53.485Z,37.88
2017-11-10T02:47:21.753Z,42.00
2017-11-10T02:49:49.985Z,38.20
2017-11-10T02:52:17.497Z,38.47
2017-11-10T02:54:45.785Z,31.05
2017-11-10T02:57:14.011Z,37.53
2017-11-10T02:59:41.496Z,34.55
2017-11-10T03:02:09.017Z,41.42
2017-11-10T03:04:36.536Z,34.47
2017-11-10T03:07:04.761Z,35.90
2017-11-10T03:09:32.260Z,39.83
2017-11-10T03:12:00.508Z,39.22
2017-11-10T03:14:27.992Z,35.38
2017-11-10T03:16:56.260Z,40.20
2017-11-10T03:19:23.752Z,36.60
2017-11-10T03:21:51.243Z,40.60
2017-11-10T03:24:18.728Z,33.60
2017-11-10T03:26:46.201Z,39.15
2017-11-10T03:29:13.707Z,42.25
2017-11-10T03:31:41.165Z,44.80
2017-11-10T03:34:08.655Z,44.95
2017-11-10T03:36:36.174Z,50.42
2017-11-10T03:39:03.680Z,46.03
2017-11-10T03:41:31.157Z,48.58
2017-11-10T03:43:59.851Z,49.58
2017-11-10T03:46:28.096Z,50.25
2017-11-10T03:48:55.587Z,43.60
2017-11-10T03:51:23.856Z,44.17
2017-11-10T03:53:52.091Z,42.28
2017-11-10T03:56:19.628Z,48.28
2017-11-10T03:58:47.150Z,45.12
2017-11-10T04:01:15.392Z,57.25
2017-11-10T04:03:42.878Z,43.58
2017-11-10T04:06:10.385Z,41.55
2017-11-10T04:08:37.860Z,54.03
2017-11-10T04:11:05.352Z,38.67
2017-11-10T04:13:32.841Z,35.08
2017-11-10T04:16:00.321Z,28.50
2017-11-10T04:18:27.819Z,33.08
2017-11-10T04:20:55.304Z,27.10
2017-11-10T04:23:23.565Z,29.98
2017-11-10T04:25:51.063Z,32.80
2017-11-10T04:28:18.532Z,28.15
2017-11-10T04:30:46.064Z,30.23
2017-11-10T04:33:14.303Z,32.88
2017-11-10T04:35:41.760Z,29.67
2017-11-10T04:38:09.261Z,32.33
2017-11-10T04:40:36.757Z,31.23
2017-11-10T04:43:04.271Z,34.40
2017-11-10T04:45:32.512Z,32.35
2017-11-10T04:48:00.023Z,29.00
2017-11-10T04:50:27.517Z,31.20
2017-11-10T04:52:55.037Z,28.17
2017-11-10T04:55:22.583Z,28.30
2017-11-10T04:57:50.812Z,29.55
2017-11-10T05:00:18.308Z,34.72
2017-11-10T05:02:46.536Z,30.37
2017-11-10T05:05:14.004Z,30.65
2017-11-10T05:07:41.499Z,29.65
2017-11-10T05:10:09.765Z,28.45
2017-11-10T05:12:37.284Z,22.00
2017-11-10T05:15:04.752Z,27.95
2017-11-10T05:17:32.261Z,26.67
2017-11-10T05:20:00.492Z,25.10
2017-11-10T05:22:27.989Z,27.08
2017-11-10T05:24:56.265Z,34.65
2017-11-10T05:27:24.525Z,29.20
2017-11-10T05:29:52.028Z,24.10
2017-11-10T05:32:19.512Z,22.73
2017-11-10T05:34:47.048Z,22.92
2017-11-10T05:37:14.523Z,24.70
2017-11-10T05:39:41.996Z,24.02
2017-11-10T05:42:09.492Z,27.48
2017-11-10T05:44:37.824Z,25.25
2017-11-10T05:47:05.331Z,21.95
2017-11-10T05:49:33.561Z,22.98
2017-11-10T05:52:01.067Z,19.48
2017-11-10T05:54:29.343Z,23.50
2017-11-10T05:56:57.580Z,20.45
2017-11-10T05:59:25.085Z,25.52
2017-11-10T06:01:53.329Z,23.58
2017-11-10T06:04:20.801Z,21.15
2017-11-10T06:06:48.311Z,25.75
2017-11-10T06:09:15.810Z,26.48
2017-11-10T06:11:43.319Z,22.15
2017-11-10T06:14:10.798Z,23.10
2017-11-10T06:16:38.313Z,26.50
2017-11-10T06:19:06.553Z,25.40
2017-11-10T06:21:34.037Z,24.77
2017-11-10T06:24:02.269Z,20.52
2017-11-10T06:26:29.775Z,24.50
2017-11-10T06:28:58.013Z,22.33
2017-11-10T06:31:25.515Z,22.70
2017-11-10T06:33:53.796Z,20.92
2017-11-10T06:36:22.050Z,24.85
2017-11-10T06:38:49.570Z,24.50
2017-11-10T06:41:17.049Z,22.65
2017-11-10T06:43:44.504Z,23.38
2017-11-10T06:46:12.032Z,22.92
2017-11-10T06:48:39.528Z,26.93
2017-11-10T06:51:07.036Z,21.90
2017-11-10T06:53:35.300Z,23.73
2017-11-10T06:56:03.589Z,20.37
2017-11-10T06:58:31.061Z,22.45
2017-11-10T07:00:58.545Z,20.98
2017-11-10T07:03:26.057Z,19.55
2017-11-10T07:05:54.293Z,19.52
2017-11-10T07:08:21.783Z,18.42
2017-11-10T07:10:50.049Z,17.10
2017-11-10T07:13:18.313Z,19.85
2017-11-10T07:15:45.806Z,19.98
2017-11-10T07:18:14.055Z,18.67
2017-11-10T07:20:41.550Z,15.35
2017-11-10T07:23:09.032Z,18.25
2017-11-10T07:25:36.543Z,16.05
2017-11-10T07:28:04.040Z,14.98
2017-11-10T07:30:31.568Z,11.75
2017-11-10T07:32:59.819Z,17.33
2017-11-10T07:35:27.296Z,15.38
2017-11-10T07:37:55.556Z,17.65
2017-11-10T07:40:23.038Z,15.85
2017-11-10T07:42:51.308Z,15.10
2017-11-10T07:45:18.804Z,18.25
2017-11-10T07:47:46.297Z,15.20
2017-11-10T07:50:13.800Z,14.70
2017-11-10T07:52:42.100Z,15.93
2017-11-10T07:55:09.577Z,16.37
2017-11-10T07:57:37.082Z,11.75
2017-11-10T08:00:04.552Z,18.35
2017-11-10T08:02:32.816Z,17.62
2017-11-10T08:05:01.048Z,14.20
2017-11-10T08:07:28.559Z,15.10
2017-11-10T08:09:56.823Z,12.73
2017-11-10T08:12:24.278Z,18.95
2017-11-10T08:14:51.778Z,15.65
2017-11-10T08:17:19.277Z,13.75
2017-11-10T08:19:46.780Z,20.73
2017-11-10T08:22:15.006Z,13.82
2017-11-10T08:24:42.505Z,12.10
2017-11-10T08:27:10.788Z,13.00
2017-11-10T08:29:39.192Z,13.60
2017-11-10T08:32:06.685Z,17.83
2017-11-10T08:34:34.152Z,15.10
2017-11-10T08:37:02.416Z,18.08
2017-11-10T08:39:29.924Z,20.88
2017-11-10T08:41:58.166Z,21.50
2017-11-10T08:44:25.691Z,18.37
2017-11-10T08:46:53.156Z,15.65
2017-11-10T08:49:20.675Z,18.10
2017-11-10T08:51:48.917Z,17.62
2017-11-10T08:54:16.385Z,15.80
2017-11-10T08:56:43.893Z,14.63
2017-11-10T08:59:11.356Z,17.23
2017-11-10T09:01:38.860Z,22.58
2017-11-10T09:04:06.309Z,16.37
2017-11-10T09:06:33.836Z,15.75
2017-11-10T09:09:01.321Z,14.80
2017-11-10T09:11:28.783Z,15.63
2017-11-10T09:13:56.292Z,16.95
2017-11-10T09:16:23.754Z,16.87
2017-11-10T09:18:51.265Z,15.48
2017-11-10T09:21:18.777Z,18.65
2017-11-10T09:23:46.256Z,17.40
2017-11-10T09:26:13.765Z,17.00
2017-11-10T09:28:47.776Z,19.25
2017-11-10T09:34:33.954Z,16.02
2017-11-10T09:37:18.086Z,17.42
2017-11-10T09:40:06.289Z,17.05
2017-11-10T09:42:36.214Z,16.90
2017-11-10T09:48:18.062Z,18.73
2017-11-10T09:50:51.276Z,15.43
2017-11-10T09:56:48.197Z,16.20
2017-11-10T09:59:18.696Z,16.48
2017-11-10T10:01:46.957Z,16.00
2017-11-10T10:04:25.313Z,14.48
2017-11-10T10:06:54.233Z,16.33
2017-11-10T10:09:27.464Z,16.17
2017-11-10T10:12:00.779Z,14.98
2017-11-10T10:14:44.676Z,13.95
2017-11-10T10:17:22.900Z,16.65
2017-11-10T10:22:56.160Z,20.58
2017-11-10T10:25:24.395Z,22.23
2017-11-10T10:27:51.883Z,20.02
2017-11-10T10:30:20.133Z,22.25
2017-11-10T10:32:47.604Z,20.62
2017-11-10T10:35:15.096Z,21.37
2017-11-10T10:37:42.579Z,19.02
2017-11-10T10:40:10.101Z,19.15
2017-11-10T10:42:38.345Z,20.12
2017-11-10T10:45:05.857Z,20.15
2017-11-10T10:47:33.373Z,21.58
2017-11-10T10:50:01.604Z,26.73
2017-11-10T10:52:29.136Z,19.73
2017-11-10T10:54:57.364Z,20.00
2017-11-10T10:57:24.881Z,17.70
2017-11-10T10:59:52.379Z,18.02
2017-11-10T11:02:19.897Z,18.60
2017-11-10T11:04:47.387Z,20.77
2017-11-10T11:07:14.871Z,21.02
2017-11-10T11:09:42.386Z,30.88
2017-11-10T11:12:09.844Z,22.67
2017-11-10T11:14:37.348Z,17.02
2017-11-10T11:17:04.829Z,19.42
2017-11-10T11:19:32.331Z,23.45
2017-11-10T11:21:59.816Z,21.25
2017-11-10T11:24:27.331Z,20.30
2017-11-10T11:26:54.813Z,16.58
2017-11-10T11:29:22.284Z,22.52
2017-11-10T11:31:49.785Z,19.70
2017-11-10T11:34:18.034Z,19.50
2017-11-10T11:36:45.533Z,19.70
2017-11-10T11:39:13.054Z,17.12
2017-11-10T11:41:40.519Z,22.58
2017-11-10T11:44:08.033Z,16.95
2017-11-10T11:46:35.544Z,19.52
2017-11-10T11:49:03.048Z,19.83
2017-11-10T11:51:30.601Z,23.62
2017-11-10T11:53:58.074Z,21.60
2017-11-10T11:56:25.584Z,17.27
2017-11-10T11:58:53.857Z,21.70
2017-11-10T12:01:21.345Z,19.42
2017-11-10T12:03:48.808Z,21.75
2017-11-10T12:06:16.306Z,21.00
2017-11-10T12:08:43.812Z,29.15
2017-11-10T12:11:11.674Z,19.10
2017-11-10T12:13:39.913Z,19.33
2017-11-10T12:16:07.404Z,21.70
2017-11-10T12:18:35.659Z,20.62
2017-11-10T12:21:04.089Z,21.52
2017-11-10T12:23:31.573Z,22.40
2017-11-10T12:25:59.068Z,20.25
2017-11-10T12:28:26.573Z,20.95
2017-11-10T12:30:54.065Z,23.75
2017-11-10T12:33:21.544Z,21.00
2017-11-10T12:35:49.785Z,21.48
2017-11-10T12:38:17.304Z,23.65
2017-11-10T12:40:44.787Z,21.50
2017-11-10T12:43:12.271Z,25.08
2017-11-10T12:45:39.771Z,23.48
2017-11-10T12:48:08.029Z,22.70
2017-11-10T12:50:35.577Z,22.08
2017-11-10T12:53:03.077Z,21.40
2017-11-10T12:55:30.585Z,20.35
2017-11-10T12:57:58.073Z,22.92
2017-11-10T13:00:26.300Z,22.10
2017-11-10T13:02:53.832Z,21.27
2017-11-10T13:05:21.300Z,22.45
2017-11-10T13:07:48.809Z,20.15
2017-11-10T13:10:16.304Z,24.75
2017-11-10T13:12:44.577Z,24.52
2017-11-10T13:15:12.833Z,26.67
2017-11-10T13:17:40.314Z,25.30
2017-11-10T13:20:08.584Z,21.20
2017-11-10T13:22:36.826Z,22.73
2017-11-10T13:25:04.337Z,27.13
2017-11-10T13:27:31.805Z,22.37
2017-11-10T13:29:59.286Z,23.50
2017-11-10T13:32:26.785Z,28.90
2017-11-10T13:34:54.299Z,23.25
2017-11-10T13:37:21.784Z,20.40
2017-11-10T13:39:49.253Z,19.60
2017-11-10T13:42:16.768Z,22.73
2017-11-10T13:44:44.272Z,19.65
2017-11-10T13:47:11.796Z,20.92
2017-11-10T13:49:39.277Z,19.62
2017-11-10T13:52:06.796Z,24.90
2017-11-10T13:54:34.323Z,22.58
2017-11-10T13:57:02.554Z,21.80
2017-11-10T13:59:30.062Z,21.37
2017-11-10T14:01:58.337Z,20.45
2017-11-10T14:04:26.610Z,18.17
2017-11-10T14:06:54.891Z,18.17
2017-11-10T14:09:23.139Z,21.37
2017-11-10T14:11:50.609Z,23.55
2017-11-10T14:14:18.492Z,18.60
2017-11-10T14:16:46.733Z,19.62
2017-11-10T14:19:14.202Z,22.62
2017-11-10T14:21:41.736Z,20.05
2017-11-10T14:24:09.213Z,21.20
2017-11-10T14:26:36.754Z,19.23
2017-11-10T14:29:04.243Z,19.48
2017-11-10T14:31:31.766Z,25.08
2017-11-10T14:33:59.253Z,23.27
2017-11-10T14:36:27.537Z,22.98
2017-11-10T14:38:55.029Z,23.80
2017-11-10T14:41:22.543Z,22.05
2017-11-10T14:43:50.017Z,20.83
2017-11-10T14:46:18.302Z,19.33
2017-11-10T14:48:45.776Z,17.55
2017-11-10T14:51:14.031Z,20.55
2017-11-10T14:53:41.513Z,18.52
2017-11-10T14:56:09.815Z,16.37
2017-11-10T14:58:37.277Z,20.65
2017-11-10T15:01:04.752Z,18.20
2017-11-10T15:03:32.265Z,19.90
2017-11-10T15:06:00.492Z,19.25
2017-11-10T15:08:27.997Z,16.23
2017-11-10T15:10:56.221Z,16.10
2017-11-10T15:13:23.744Z,14.15
2017-11-10T15:15:51.265Z,16.85
2017-11-10T15:18:20.275Z,15.18
2017-11-10T15:20:48.541Z,16.25
2017-11-10T15:23:16.041Z,17.33
2017-11-10T15:25:43.548Z,17.52
2017-11-10T15:28:11.024Z,13.38
2017-11-10T15:30:39.263Z,11.12
2017-11-10T15:33:06.791Z,12.25
2017-11-10T15:35:34.249Z,12.27
2017-11-10T15:38:03.794Z,11.25
2017-11-10T15:40:31.286Z,31.70
2017-11-10T15:42:59.552Z,33.72
2017-11-10T15:48:07.585Z,12.82
2017-11-10T15:50:35.817Z,12.00
2017-11-10T15:53:03.308Z,12.40
2017-11-10T15:55:31.571Z,13.88
2017-11-10T15:57:59.078Z,12.40
2017-11-10T16:00:26.561Z,13.52
2017-11-10T16:02:54.071Z,12.25
2017-11-10T16:05:22.354Z,11.15
2017-11-10T16:07:50.641Z,11.55
2017-11-10T16:10:18.914Z,12.68
2017-11-10T16:12:47.172Z,12.27
2017-11-10T16:15:14.675Z,11.73
2017-11-10T16:17:42.203Z,13.68
2017-11-10T16:20:10.432Z,10.63
2017-11-10T16:22:37.950Z,11.57
2017-11-10T16:25:06.224Z,12.45
2017-11-10T16:27:34.492Z,13.57
2017-11-10T16:30:02.759Z,15.82
2017-11-10T16:32:30.265Z,10.13
2017-11-10T16:34:57.765Z,10.93
2017-11-10T16:37:25.242Z,9.98
2017-11-10T16:39:53.504Z,10.77
2017-11-10T16:42:21.005Z,10.18
2017-11-10T16:44:49.826Z,9.63
2017-11-10T16:47:17.424Z,10.23
2017-11-10T16:49:45.669Z,14.02
2017-11-10T16:52:13.171Z,12.98
2017-11-10T16:54:41.422Z,8.73
2017-11-10T16:57:08.974Z,10.05
2017-11-10T16:59:36.473Z,11.32
2017-11-10T17:02:04.760Z,9.75
2017-11-10T17:04:32.211Z,10.70
2017-11-10T17:06:59.688Z,11.68
2017-11-10T17:09:31.794Z,12.77
2017-11-10T17:11:59.269Z,12.02
2017-11-10T17:14:26.779Z,8.85
2017-11-10T17:16:54.271Z,17.25
2017-11-10T17:19:21.766Z,12.63
2017-11-10T17:21:49.263Z,17.30
2017-11-10T17:24:16.742Z,11.23
2017-11-10T17:26:44.233Z,10.75
2017-11-10T17:29:12.497Z,16.08
2017-11-10T17:31:40.011Z,17.75
2017-11-10T17:34:07.502Z,15.75
2017-11-10T17:36:35.022Z,14.20
2017-11-10T17:39:02.501Z,12.40
2017-11-10T17:41:29.963Z,12.98
2017-11-10T17:43:57.807Z,13.40
2017-11-10T17:46:26.121Z,15.60
2017-11-10T17:48:53.593Z,11.98
2017-11-10T17:51:21.052Z,10.98
2017-11-10T17:53:48.533Z,14.13
2017-11-10T17:56:16.753Z,11.85
2017-11-10T17:58:44.287Z,12.37
2017-11-10T18:01:11.748Z,14.15
2017-11-10T18:03:39.244Z,15.25
2017-11-10T18:06:06.714Z,12.32
2017-11-10T18:08:34.188Z,12.48
2017-11-10T18:11:02.453Z,11.12
2017-11-10T18:13:29.945Z,18.62
2017-11-10T18:15:57.497Z,11.23
2017-11-10T18:18:25.755Z,9.13
2017-11-10T18:20:53.991Z,8.20
2017-11-10T18:23:21.483Z,9.73
2017-11-10T18:25:50.118Z,8.48
2017-11-10T18:28:17.635Z,8.77
2017-11-10T18:30:45.101Z,10.07
2017-11-10T18:33:13.337Z,13.32
2017-11-10T18:35:40.837Z,12.18
2017-11-10T18:38:09.072Z,11.18
2017-11-10T18:40:36.569Z,9.43
2017-11-10T18:43:04.839Z,7.97
2017-11-10T18:45:33.574Z,11.95
2017-11-10T18:48:01.064Z,10.27
2017-11-10T18:50:28.525Z,9.02
2017-11-10T18:52:56.624Z,9.50
2017-11-10T18:55:30.613Z,10.82
2017-11-10T18:57:58.131Z,54.75
2017-11-10T19:00:25.639Z,13.73
2017-11-10T19:02:53.155Z,11.85
2017-11-10T19:05:20.610Z,8.20
2017-11-10T19:07:48.369Z,11.50
2017-11-10T19:10:15.880Z,14.13
2017-11-10T19:12:43.385Z,8.00
2017-11-10T19:15:10.874Z,10.35
2017-11-10T19:17:38.369Z,11.65
2017-11-10T19:20:06.613Z,7.40
2017-11-10T19:22:34.144Z,7.80
2017-11-10T19:25:01.620Z,10.65
2017-11-10T19:27:29.143Z,6.30
2017-11-10T19:29:56.666Z,9.60
2017-11-10T19:32:24.151Z,16.83
2017-11-10T19:34:52.419Z,13.40
2017-11-10T19:37:20.678Z,6.55
2017-11-10T19:39:48.596Z,7.90
2017-11-10T19:42:16.117Z,4.87
2017-11-10T19:44:44.564Z,6.97
2017-11-10T20:00:17.519Z,4.22
2017-11-10T20:02:46.452Z,4.25
2017-11-10T20:05:15.400Z,5.90
2017-11-10T20:07:42.954Z,5.50
2017-11-10T20:10:10.470Z,6.62
2017-11-10T20:12:37.988Z,4.82
2017-11-10T20:15:05.511Z,7.40
2017-11-10T20:17:35.150Z,138.30
2017-11-10T20:20:02.684Z,25.77
2017-11-10T20:22:30.944Z,25.27
2017-11-10T20:24:59.587Z,12.50
2017-11-10T20:27:27.333Z,50.90
2017-11-10T20:29:55.719Z,11.95
2017-11-10T20:32:23.305Z,5.30
2017-11-10T20:34:50.783Z,9.88
2017-11-10T20:37:19.160Z,6.45
2017-11-10T20:39:46.752Z,8.15
2017-11-10T20:42:14.536Z,5.65
2017-11-10T20:44:42.040Z,6.28
2017-11-10T20:47:09.537Z,6.12
2017-11-10T20:59:27.033Z,4.80
2017-11-10T21:01:54.560Z,4.35
2017-11-10T21:04:22.048Z,5.55
2017-11-10T21:06:49.570Z,5.72
2017-11-10T21:09:17.149Z,4.95
2017-11-10T21:11:45.394Z,4.82
2017-11-10T21:14:12.925Z,4.70
2017-11-10T21:16:40.961Z,8.85
2017-11-10T21:19:09.339Z,3.15
2017-11-10T21:21:37.587Z,3.47
2017-11-10T21:24:05.104Z,3.30
2017-11-10T21:26:32.676Z,3.80
2017-11-10T21:29:00.140Z,4.35
2017-11-10T21:31:27.632Z,7.15
2017-11-10T21:33:55.134Z,4.10
2017-11-10T21:36:22.643Z,4.35
2017-11-10T21:38:50.124Z,3.70
2017-11-10T21:41:18.401Z,3.10
2017-11-10T21:43:46.664Z,2.95
2017-11-10T21:46:14.146Z,3.30
2017-11-10T21:48:42.435Z,2.53
2017-11-10T21:51:10.678Z,2.20
2017-11-10T21:53:38.144Z,2.25
2017-11-10T21:56:05.767Z,3.70
2017-11-10T21:58:33.268Z,3.33
2017-11-10T22:01:00.837Z,2.70
2017-11-10T22:03:29.085Z,2.67
2017-11-10T22:05:56.551Z,3.08
2017-11-10T22:08:24.048Z,2.00
2017-11-10T22:10:51.504Z,2.45
2017-11-10T22:13:19.338Z,3.20
2017-11-10T22:15:46.788Z,3.70
2017-11-10T22:18:14.611Z,4.40
2017-11-10T22:20:42.068Z,2.60
2017-11-10T22:23:09.562Z,3.45
2017-11-10T22:25:37.033Z,4.65
2017-11-10T22:28:04.624Z,4.12
2017-11-10T22:30:32.876Z,7.60
2017-11-10T22:33:00.338Z,6.37
2017-11-10T22:35:27.842Z,5.45
2017-11-10T22:37:55.297Z,7.05
2017-11-10T22:40:22.800Z,4.37
2017-11-10T22:42:50.341Z,7.62
2017-11-10T22:45:17.797Z,6.00
2017-11-10T22:47:45.301Z,5.05
2017-11-10T22:50:13.543Z,3.42
2017-11-10T22:52:40.997Z,2.80
2017-11-10T22:55:08.497Z,2.60
2017-11-10T22:57:36.725Z,2.20
2017-11-10T23:00:04.176Z,2.85
2017-11-10T23:02:31.673Z,4.37
2017-11-10T23:04:59.151Z,3.12
2017-11-10T23:07:27.444Z,11.02
2017-11-10T23:09:54.915Z,5.68
2017-11-10T23:12:22.425Z,7.45
2017-11-10T23:14:50.956Z,6.25
2017-11-10T23:17:18.436Z,10.13
2017-11-10T23:19:45.929Z,3.37
2017-11-10T23:22:13.394Z,5.30
2017-11-10T23:24:41.665Z,6.82
2017-11-10T23:27:09.123Z,7.37
2017-11-10T23:29:36.622Z,5.47
2017-11-10T23:32:04.094Z,4.72
2017-11-10T23:34:31.593Z,4.47
2017-11-10T23:36:59.057Z,5.55
2017-11-10T23:39:27.290Z,15.85
2017-11-10T23:41:54.796Z,9.68
2017-11-10T23:44:23.040Z,6.68
2017-11-10T23:46:50.548Z,11.52
2017-11-10T23:49:18.791Z,21.83
2017-11-10T23:51:46.276Z,10.25
2017-11-10T23:54:14.524Z,8.52
2017-11-10T23:56:41.984Z,15.77
2017-11-10T23:59:09.473Z,15.88
